Time;durP1;ratioP1;P1;durP2;ratioP2;P2;SDS_P1;SDS_P2;PMS_P1;PMS_P2;Temp;Humidity;BMP_temperature;BMP_pressure;BME280_temperature;BME280_humidity;BME280_pressure;Samples;Min_cycle;Max_cycle;Signal;HPM_P1;HPM_P2
2021/07/28 00:00:15;;;;;;;16.23;7.07;;;;;;;21.19;100.00;100511.30;1741149;80;21053;-62
2021/07/28 00:02:42;;;;;;;11.00;6.50;;;;;;;21.20;100.00;100508.91;1736664;82;21571;-61
2021/07/28 00:05:10;;;;;;;15.13;6.97;;;;;;;21.08;100.00;100512.48;1747216;80;21037;-63
2021/07/28 00:07:37;;;;;;;19.03;7.10;;;;;;;21.16;100.00;100512.58;1746084;80;21155;-63
2021/07/28 00:10:04;;;;;;;14.47;6.77;;;;;;;21.07;100.00;100512.74;1749288;80;21030;-62
2021/07/28 00:12:31;;;;;;;10.80;6.93;;;;;;;20.96;100.00;100514.45;1744972;80;21101;-62
2021/07/28 00:14:58;;;;;;;11.50;7.73;;;;;;;21.01;100.00;100516.36;1748677;80;20938;-62
2021/07/28 00:17:26;;;;;;;10.80;6.07;;;;;;;20.92;100.00;100523.15;1750824;80;21085;-64
2021/07/28 00:20:08;;;;;;;11.47;6.23;;;;;;;20.82;100.00;100522.47;1745811;81;21839;-62
2021/07/28 00:25:23;;;;;;;16.80;6.97;;;;;;;20.88;100.00;100513.03;1745114;80;21113;-62
2021/07/28 00:27:50;;;;;;;13.27;6.77;;;;;;;20.79;100.00;100516.33;1747835;80;21498;-61
2021/07/28 00:30:17;;;;;;;13.57;7.23;;;;;;;20.63;100.00;100516.12;1745377;81;21010;-64
2021/07/28 00:32:44;;;;;;;11.23;6.90;;;;;;;20.53;100.00;100515.98;1749878;80;22358;-63
2021/07/28 00:35:11;;;;;;;13.17;6.23;;;;;;;20.51;100.00;100506.67;1749108;80;20986;-63
2021/07/28 00:37:38;;;;;;;9.47;6.30;;;;;;;20.50;100.00;100507.20;1746093;80;21496;-63
2021/07/28 00:40:06;;;;;;;14.33;7.33;;;;;;;20.48;100.00;100504.47;1747161;80;21504;-61
2021/07/28 00:42:33;;;;;;;16.30;7.77;;;;;;;20.45;100.00;100506.28;1744068;81;21128;-63
2021/07/28 00:45:00;;;;;;;10.47;6.17;;;;;;;20.54;100.00;100503.02;1743893;80;21114;-63
2021/07/28 00:47:27;;;;;;;13.93;6.37;;;;;;;20.45;100.00;100503.10;1747183;80;20927;-63
2021/07/28 00:49:53;;;;;;;17.83;6.83;;;;;;;20.01;100.00;100506.92;1746772;80;21057;-63
2021/07/28 00:52:20;;;;;;;9.73;6.17;;;;;;;19.93;100.00;100506.80;1746308;80;21037;-60
2021/07/28 00:54:46;;;;;;;12.20;6.10;;;;;;;20.13;100.00;100508.17;1743889;81;21071;-63
2021/07/28 00:57:13;;;;;;;10.10;6.57;;;;;;;20.21;100.00;100500.36;1748644;80;21138;-64
2021/07/28 00:59:39;;;;;;;14.43;7.70;;;;;;;20.22;100.00;100503.28;1746590;80;20995;-63
2021/07/28 01:02:06;;;;;;;16.00;6.77;;;;;;;20.10;100.00;100509.45;1746548;80;21601;-64
2021/07/28 01:04:33;;;;;;;13.40;6.30;;;;;;;20.16;100.00;100507.70;1732411;81;20998;-61
2021/07/28 01:07:00;;;;;;;15.47;7.47;;;;;;;20.10;100.00;100511.30;1724643;81;21156;-63
2021/07/28 01:09:28;;;;;;;12.00;7.07;;;;;;;20.12;100.00;100504.73;1724863;81;21148;-63
2021/07/28 01:11:58;;;;;;;10.77;6.70;;;;;;;20.06;100.00;100511.49;1721822;81;21508;-63
2021/07/28 01:14:25;;;;;;;11.07;6.37;;;;;;;20.04;100.00;100510.42;1722933;81;21086;-60
2021/07/28 01:16:53;;;;;;;20.80;7.40;;;;;;;20.14;100.00;100513.22;1722584;81;21089;-63
2021/07/28 01:19:20;;;;;;;11.13;6.20;;;;;;;20.03;100.00;100515.94;1721931;81;21001;-63
2021/07/28 01:21:48;;;;;;;13.50;6.93;;;;;;;19.91;100.00;100512.03;1697596;83;21170;-63
2021/07/28 01:24:15;;;;;;;12.93;7.37;;;;;;;19.94;100.00;100510.23;1724922;81;20995;-61
2021/07/28 01:26:43;;;;;;;11.53;6.83;;;;;;;20.05;100.00;100515.19;1722222;81;20958;-62
2021/07/28 01:29:13;;;;;;;13.47;6.90;;;;;;;20.00;100.00;100509.30;1722923;81;21351;-63
2021/07/28 01:31:41;;;;;;;13.37;7.27;;;;;;;20.00;100.00;100511.11;1724507;81;21026;-63
2021/07/28 01:34:09;;;;;;;11.97;6.87;;;;;;;20.04;100.00;100510.42;1724769;81;21934;-63
2021/07/28 01:36:35;;;;;;;13.37;7.17;;;;;;;19.98;100.00;100517.19;1720808;81;21441;-60
2021/07/28 01:39:04;;;;;;;15.33;7.67;;;;;;;19.91;100.00;100522.62;1723799;81;21033;-63
2021/07/28 01:41:32;;;;;;;12.20;7.23;;;;;;;19.88;100.00;100515.95;1724063;81;21488;-64
2021/07/28 01:43:58;;;;;;;12.53;7.43;;;;;;;19.86;100.00;100519.89;1722108;81;21063;-63
2021/07/28 01:46:25;;;;;;;22.17;8.93;;;;;;;19.82;100.00;100526.70;1722435;81;21158;-63
2021/07/28 01:48:51;;;;;;;14.10;9.47;;;;;;;19.87;100.00;100529.42;1722859;81;21137;-63
2021/07/28 01:51:18;;;;;;;17.70;9.70;;;;;;;19.79;100.00;100529.29;1725044;81;21011;-63
2021/07/28 01:53:45;;;;;;;15.53;10.47;;;;;;;19.71;100.00;100535.48;1720232;81;21014;-63
2021/07/28 01:56:12;;;;;;;52.00;38.30;;;;;;;19.68;100.00;100535.43;1695128;83;21164;-63
2021/07/28 01:58:41;;;;;;;34.53;27.60;;;;;;;19.68;100.00;100537.55;1721835;81;21116;-61
2021/07/28 02:01:07;;;;;;;55.97;45.47;;;;;;;19.64;100.00;100545.67;1722069;81;21119;-63
2021/07/28 02:03:34;;;;;;;58.57;44.73;;;;;;;19.59;100.00;100536.83;1724546;81;21015;-62
2021/07/28 02:06:01;;;;;;;99.23;76.87;;;;;;;19.52;100.00;100539.60;1743808;80;21104;-63
2021/07/28 02:08:28;;;;;;;95.20;73.57;;;;;;;19.47;100.00;100537.36;1742946;81;21017;-61
2021/07/28 02:10:55;;;;;;;94.00;74.87;;;;;;;19.53;100.00;100538.55;1748994;80;21222;-62
2021/07/28 02:13:23;;;;;;;72.27;59.87;;;;;;;19.66;100.00;100534.36;1749008;80;21034;-63
2021/07/28 02:15:49;;;;;;;53.83;45.03;;;;;;;19.58;100.00;100530.70;1754037;80;21089;-63
2021/07/28 02:18:17;;;;;;;48.67;37.10;;;;;;;19.80;100.00;100524.80;1750787;80;20970;-63
2021/07/28 02:20:44;;;;;;;34.17;24.20;;;;;;;19.95;100.00;100529.56;1753560;80;21013;-62
2021/07/28 02:23:11;;;;;;;21.90;15.83;;;;;;;19.92;100.00;100526.86;1750744;80;22271;-62
2021/07/28 02:25:37;;;;;;;32.73;14.27;;;;;;;20.02;100.00;100532.86;1750677;80;20908;-63
2021/07/28 02:28:04;;;;;;;17.57;11.50;;;;;;;20.18;100.00;100531.55;1751288;80;21057;-64
2021/07/28 02:30:30;;;;;;;16.10;10.63;;;;;;;20.34;100.00;100530.47;1752151;80;21582;-61
2021/07/28 02:32:57;;;;;;;22.37;10.50;;;;;;;20.37;100.00;100534.76;1749857;80;21100;-62
2021/07/28 02:35:23;;;;;;;16.30;9.40;;;;;;;20.10;100.00;100537.23;1749140;81;21547;-63
2021/07/28 02:37:50;;;;;;;18.73;8.93;;;;;;;20.39;100.00;100536.66;1751097;80;20983;-64
2021/07/28 02:40:20;;;;;;;16.93;9.17;;;;;;;20.35;100.00;100547.98;1747822;80;21104;-63
2021/07/28 02:42:47;;;;;;;14.27;8.70;;;;;;;20.45;100.00;100544.14;1751674;80;21056;-63
2021/07/28 02:45:13;;;;;;;18.17;9.17;;;;;;;20.62;100.00;100540.21;1750189;81;21041;-63
2021/07/28 02:47:40;;;;;;;13.50;8.77;;;;;;;20.68;100.00;100541.87;1749162;80;21174;-63
2021/07/28 02:50:08;;;;;;;15.33;8.90;;;;;;;20.82;100.00;100543.67;1721985;80;21024;-62
2021/07/28 02:52:34;;;;;;;16.27;8.73;;;;;;;20.88;100.00;100541.38;1751730;80;21026;-63
2021/07/28 02:55:07;;;;;;;13.33;7.73;;;;;;;20.97;100.00;100539.11;1751656;80;21586;-62
2021/07/28 02:57:35;;;;;;;13.57;8.40;;;;;;;21.20;100.00;100535.42;1751877;80;20907;-61
2021/07/28 03:02:46;;;;;;;10.80;8.13;;;;;;;21.61;100.00;100544.16;1748495;80;20934;-63
2021/07/28 03:05:14;;;;;;;14.33;7.90;;;;;;;21.71;100.00;100544.01;1750559;80;20938;-64
2021/07/28 03:07:40;;;;;;;12.10;7.90;;;;;;;21.89;100.00;100537.00;1751715;80;20949;-63
2021/07/28 03:10:09;;;;;;;10.77;7.17;;;;;;;22.06;100.00;100538.23;1746928;81;21091;-63
2021/07/28 03:12:36;;;;;;;12.20;6.50;;;;;;;22.62;100.00;100537.91;1714636;81;21821;-63
2021/07/28 03:15:04;;;;;;;12.93;7.30;;;;;;;23.18;100.00;100534.22;1751920;80;21575;-64
2021/07/28 03:17:31;;;;;;;19.43;11.40;;;;;;;23.81;100.00;100528.31;1715196;81;21721;-62
2021/07/28 03:19:58;;;;;;;24.17;13.50;;;;;;;24.70;100.00;100526.16;1754879;80;20953;-63
2021/07/28 03:22:25;;;;;;;20.33;13.87;;;;;;;25.33;100.00;100513.16;1751885;80;20983;-63
2021/07/28 03:24:51;;;;;;;17.57;10.70;;;;;;;25.90;100.00;100515.77;1753381;80;21136;-63
2021/07/28 03:27:18;;;;;;;16.57;9.30;;;;;;;26.46;100.00;100511.05;1713961;82;21084;-62
2021/07/28 03:29:45;;;;;;;15.73;9.80;;;;;;;27.14;100.00;100509.50;1749785;80;21042;-62
2021/07/28 03:32:11;;;;;;;14.90;9.13;;;;;;;27.69;100.00;100516.48;1713177;81;20918;-62
2021/07/28 03:34:38;;;;;;;16.63;8.77;;;;;;;28.30;100.00;100511.52;1752900;80;21159;-62
2021/07/28 03:37:05;;;;;;;11.88;8.23;;;;;;;29.05;100.00;100513.61;1716963;81;21123;-61
2021/07/28 03:39:32;;;;;;;12.88;9.00;;;;;;;29.82;100.00;100510.06;1752272;80;21581;-61
2021/07/28 03:41:58;;;;;;;14.30;8.88;;;;;;;30.35;96.98;100511.19;1754325;80;21013;-61
2021/07/28 03:44:25;;;;;;;10.98;7.65;;;;;;;30.98;87.79;100511.33;1717360;81;21024;-60
2021/07/28 03:46:51;;;;;;;10.40;8.00;;;;;;;31.56;77.18;100513.38;1716964;81;21085;-61
2021/07/28 03:49:18;;;;;;;14.18;8.00;;;;;;;32.15;69.43;100511.73;1751344;80;21151;-61
2021/07/28 03:51:44;;;;;;;11.30;8.05;;;;;;;32.70;62.51;100508.22;1754902;80;21008;-60
2021/07/28 03:54:12;;;;;;;12.00;7.50;;;;;;;32.97;60.04;100512.94;1714444;81;21080;-60
2021/07/28 03:56:38;;;;;;;13.28;7.65;;;;;;;33.53;55.52;100514.86;1752363;80;21047;-64
2021/07/28 03:59:05;;;;;;;10.82;7.90;;;;;;;34.00;52.32;100512.44;1716841;81;20993;-63
2021/07/28 04:01:32;;;;;;;13.03;7.65;;;;;;;34.48;48.81;100506.88;1753983;80;22328;-62
2021/07/28 04:03:59;;;;;;;11.20;7.10;;;;;;;34.73;47.08;100509.02;1755541;80;21057;-62
2021/07/28 04:06:25;;;;;;;12.58;7.58;;;;;;;34.98;45.53;100511.14;1752895;80;20899;-62
2021/07/28 04:08:52;;;;;;;13.95;7.60;;;;;;;35.26;44.20;100504.43;1713965;81;21672;-62
2021/07/28 04:11:19;;;;;;;12.70;7.12;;;;;;;35.35;43.82;100511.87;1748557;80;21069;-62
2021/07/28 04:13:46;;;;;;;12.90;7.35;;;;;;;35.75;42.87;100509.69;1756244;80;22311;-65
2021/07/28 04:16:12;;;;;;;11.53;6.30;;;;;;;36.23;41.58;100509.20;1752749;80;20978;-62
2021/07/28 04:18:39;;;;;;;11.83;6.25;;;;;;;36.69;40.12;100508.17;1714035;81;21007;-64
2021/07/28 04:21:06;;;;;;;11.57;7.15;;;;;;;36.91;39.16;100508.86;1755385;80;21053;-63
2021/07/28 04:23:32;;;;;;;13.03;6.37;;;;;;;37.13;38.35;100508.78;1712642;82;20961;-62
2021/07/28 04:26:00;;;;;;;9.05;6.28;;;;;;;37.34;37.40;100507.63;1751584;80;22096;-63
2021/07/28 04:28:26;;;;;;;9.88;6.20;;;;;;;37.39;37.04;100508.14;1749813;80;20985;-62
2021/07/28 04:30:53;;;;;;;11.28;7.03;;;;;;;37.41;37.03;100500.42;1754578;80;21026;-61
2021/07/28 04:33:21;;;;;;;14.35;7.00;;;;;;;37.69;36.68;100506.18;1754097;80;20974;-63
2021/07/28 04:35:47;;;;;;;9.50;6.17;;;;;;;38.12;36.39;100497.45;1753027;80;20979;-63
2021/07/28 04:38:14;;;;;;;10.23;5.97;;;;;;;38.54;35.19;100505.52;1756634;80;21335;-62
2021/07/28 04:40:40;;;;;;;13.43;8.90;;;;;;;38.83;34.65;100502.66;1712802;81;20943;-61
2021/07/28 04:43:07;;;;;;;9.38;6.53;;;;;;;39.27;33.94;100506.14;1751557;80;21418;-62
2021/07/28 04:45:33;;;;;;;9.85;6.17;;;;;;;39.36;33.04;100494.37;1752909;80;20906;-62
2021/07/28 04:48:00;;;;;;;11.90;6.30;;;;;;;39.35;32.97;100494.14;1716031;81;21582;-62
2021/07/28 04:50:26;;;;;;;11.30;6.22;;;;;;;39.48;32.93;100486.51;1753126;80;21386;-61
2021/07/28 04:52:53;;;;;;;10.95;6.67;;;;;;;39.43;33.26;100479.23;1713527;81;20933;-63
2021/07/28 04:55:19;;;;;;;8.68;6.45;;;;;;;39.83;32.47;100479.84;1754356;80;21100;-63
2021/07/28 04:57:46;;;;;;;11.55;6.72;;;;;;;40.05;31.78;100480.23;1750995;80;21065;-63
2021/07/28 05:00:15;;;;;;;10.50;6.92;;;;;;;40.13;31.73;100484.61;1713711;81;21080;-62
2021/07/28 05:02:42;;;;;;;14.28;7.17;;;;;;;40.29;31.37;100484.91;1754867;80;21125;-62
2021/07/28 05:05:09;;;;;;;9.25;6.78;;;;;;;40.33;31.52;100481.04;1712377;81;21009;-63
2021/07/28 05:07:36;;;;;;;11.08;8.38;;;;;;;40.66;31.40;100479.32;1751829;80;21576;-63
2021/07/28 05:10:03;;;;;;;9.85;8.05;;;;;;;40.85;31.35;100477.66;1718067;81;21422;-62
2021/07/28 05:12:30;;;;;;;15.15;7.60;;;;;;;41.25;30.70;100481.33;1749092;80;21527;-63
2021/07/28 05:14:57;;;;;;;8.55;7.30;;;;;;;41.44;30.12;100475.34;1753701;80;21146;-62
2021/07/28 05:17:24;;;;;;;7.15;6.12;;;;;;;41.43;29.90;100471.05;1712732;81;21017;-62
2021/07/28 05:19:51;;;;;;;11.63;7.42;;;;;;;41.17;30.56;100474.27;1716813;81;20930;-62
2021/07/28 05:22:18;;;;;;;12.73;6.08;;;;;;;40.92;30.21;100480.23;1750120;80;21073;-63
2021/07/28 05:24:45;;;;;;;8.13;5.62;;;;;;;40.08;31.00;100479.48;1750047;80;21504;-62
2021/07/28 05:27:12;;;;;;;7.97;5.90;;;;;;;39.11;32.10;100480.41;1719162;81;21142;-62
2021/07/28 05:29:38;;;;;;;11.70;5.72;;;;;;;37.93;33.78;100475.16;1750042;80;21365;-62
2021/07/28 05:32:05;;;;;;;11.05;5.53;;;;;;;36.90;36.05;100482.03;1750879;80;20926;-61
2021/07/28 05:34:32;;;;;;;11.10;5.35;;;;;;;36.42;37.99;100487.55;1713094;81;21099;-62
2021/07/28 05:36:59;;;;;;;11.20;6.25;;;;;;;36.50;39.00;100481.75;1715388;81;21084;-62
2021/07/28 05:39:25;;;;;;;13.83;6.45;;;;;;;36.48;38.93;100479.40;1750547;80;21202;-63
2021/07/28 05:41:52;;;;;;;9.55;6.00;;;;;;;36.31;39.35;100479.73;1751592;80;20997;-63
2021/07/28 05:44:19;;;;;;;10.40;5.53;;;;;;;35.70;40.37;100479.54;1753808;80;21053;-62
2021/07/28 05:46:45;;;;;;;9.38;6.33;;;;;;;34.86;43.13;100482.16;1751455;80;21057;-63
2021/07/28 05:49:12;;;;;;;7.83;6.00;;;;;;;34.77;46.10;100480.13;1715256;81;21582;-62
2021/07/28 05:51:39;;;;;;;9.88;6.22;;;;;;;35.15;46.24;100469.47;1755052;80;22187;-62
2021/07/28 05:54:05;;;;;;;10.70;6.22;;;;;;;35.69;45.98;100462.27;1715056;81;21049;-63
2021/07/28 05:56:32;;;;;;;10.40;6.60;;;;;;;36.46;43.37;100465.38;1753206;80;21053;-63
2021/07/28 05:58:58;;;;;;;10.30;7.60;;;;;;;37.29;41.02;100463.06;1753596;80;21586;-63
2021/07/28 06:01:26;;;;;;;14.50;9.03;;;;;;;37.80;39.68;100458.77;1713604;81;21468;-63
2021/07/28 06:03:53;;;;;;;13.88;7.35;;;;;;;38.40;38.10;100457.64;1708860;82;21142;-63
2021/07/28 06:06:20;;;;;;;15.50;7.87;;;;;;;38.85;37.21;100454.59;1701204;82;21027;-62
2021/07/28 06:08:46;;;;;;;18.35;6.97;;;;;;;39.16;36.34;100453.39;1693450;83;21006;-63
2021/07/28 06:11:14;;;;;;;9.90;6.92;;;;;;;39.57;35.48;100451.51;1700412;82;21083;-63
2021/07/28 06:13:42;;;;;;;11.15;7.60;;;;;;;39.98;34.65;100452.88;1704046;82;21347;-62
2021/07/28 06:16:09;;;;;;;10.82;7.53;;;;;;;40.33;33.83;100447.48;1703558;82;21155;-63
2021/07/28 06:18:36;;;;;;;12.13;7.33;;;;;;;40.83;33.17;100447.17;1702304;82;21089;-63
2021/07/28 06:21:02;;;;;;;11.88;7.22;;;;;;;41.15;32.41;100442.44;1704199;82;21121;-63
2021/07/28 06:23:29;;;;;;;10.90;7.37;;;;;;;41.25;31.68;100440.89;1702384;82;21054;-62
2021/07/28 06:25:58;;;;;;;11.30;8.05;;;;;;;41.37;31.74;100442.47;1701050;82;21475;-63
2021/07/28 06:28:26;;;;;;;11.90;7.92;;;;;;;41.65;31.83;100439.80;1701701;82;22141;-63
2021/07/28 06:30:53;;;;;;;15.20;8.30;;;;;;;41.97;30.66;100439.03;1704051;82;21396;-64
2021/07/28 06:33:22;;;;;;;10.78;7.95;;;;;;;41.92;30.57;100438.84;1706363;82;21378;-64
2021/07/28 06:35:51;;;;;;;10.60;8.73;;;;;;;41.80;30.70;100437.85;1704011;82;22011;-64
2021/07/28 06:38:19;;;;;;;14.33;7.92;;;;;;;41.87;30.68;100440.62;1704817;82;21032;-64
2021/07/28 06:40:47;;;;;;;16.40;8.38;;;;;;;41.88;30.60;100443.55;1707315;82;21147;-64
2021/07/28 06:43:13;;;;;;;12.37;7.45;;;;;;;41.86;31.22;100437.66;1701971;82;21044;-64
2021/07/28 06:45:40;;;;;;;12.20;8.68;;;;;;;42.08;30.49;100432.17;1705085;82;21041;-63
2021/07/28 06:48:07;;;;;;;11.90;7.37;;;;;;;42.24;30.07;100428.42;1704687;82;20985;-63
2021/07/28 06:50:34;;;;;;;13.15;8.65;;;;;;;42.31;29.98;100422.18;1707570;82;21572;-62
2021/07/28 06:53:00;;;;;;;14.30;8.13;;;;;;;42.49;29.80;100423.69;1703210;82;21687;-63
2021/07/28 06:55:28;;;;;;;13.13;7.95;;;;;;;42.69;29.74;100422.65;1707133;82;21281;-64
2021/07/28 06:57:54;;;;;;;11.20;8.03;;;;;;;42.87;30.00;100423.17;1706170;82;21547;-64
2021/07/28 07:00:23;;;;;;;10.08;7.75;;;;;;;43.09;29.24;100422.50;1704101;82;21016;-64
2021/07/28 07:02:52;;;;;;;16.30;8.73;;;;;;;43.33;28.93;100422.13;1714316;81;20988;-64
2021/07/28 07:05:18;;;;;;;12.47;8.20;;;;;;;43.33;28.48;100412.53;1701662;81;21936;-63
2021/07/28 07:07:50;;;;;;;11.40;8.30;;;;;;;43.20;28.44;100411.64;1724835;81;21083;-64
2021/07/28 07:10:13;;;;;;;12.73;8.20;;;;;;;43.07;28.32;100410.53;1724482;81;21123;-63
2021/07/28 07:12:41;;;;;;;12.47;7.50;;;;;;;42.79;28.65;100410.09;1727750;81;21006;-62
2021/07/28 07:15:09;;;;;;;10.78;8.13;;;;;;;42.66;29.06;100406.22;1727681;81;20917;-64
2021/07/28 07:17:35;;;;;;;10.88;7.62;;;;;;;42.58;29.08;100404.07;1723614;83;21703;-62
2021/07/28 07:20:03;;;;;;;11.00;7.22;;;;;;;42.50;28.56;100402.54;1714843;83;21134;-64
2021/07/28 07:22:29;;;;;;;11.95;7.12;;;;;;;42.40;29.39;100395.94;1692383;83;20998;-64
2021/07/28 07:24:58;;;;;;;10.85;6.95;;;;;;;42.33;29.08;100400.66;1723262;81;21008;-62
2021/07/28 07:27:25;;;;;;;11.57;8.00;;;;;;;42.69;28.85;100395.23;1740812;82;21134;-65
2021/07/28 07:29:51;;;;;;;14.10;8.70;;;;;;;42.88;28.84;100397.30;1732343;82;21178;-65
2021/07/28 07:32:23;;;;;;;15.53;8.30;;;;;;;42.82;29.45;100398.33;1743112;82;21025;-64
2021/07/28 07:34:50;;;;;;;13.55;8.83;;;;;;;42.83;29.23;100395.77;1725586;81;21083;-63
2021/07/28 07:37:17;;;;;;;14.60;8.68;;;;;;;42.23;29.60;100396.73;1737632;82;20867;-62
2021/07/28 07:39:44;;;;;;;15.05;9.40;;;;;;;42.22;29.61;100397.33;1700786;82;21554;-66
2021/07/28 07:42:10;;;;;;;14.05;8.60;;;;;;;42.36;29.79;100395.17;1700991;82;21165;-65
2021/07/28 07:44:38;;;;;;;14.55;8.65;;;;;;;42.58;29.57;100395.84;1701278;82;21057;-64
2021/07/28 07:47:05;;;;;;;14.07;8.38;;;;;;;42.26;29.31;100394.61;1700364;82;21502;-64
2021/07/28 07:49:31;;;;;;;14.53;7.97;;;;;;;41.98;29.59;100394.06;1699086;82;21040;-64
2021/07/28 07:51:58;;;;;;;13.43;8.20;;;;;;;41.85;29.76;100389.56;1704291;82;21425;-63
2021/07/28 07:54:25;;;;;;;14.33;7.80;;;;;;;42.10;30.05;100386.02;1703459;82;21154;-63
2021/07/28 07:56:53;;;;;;;12.03;7.50;;;;;;;42.34;28.83;100378.92;1700628;82;21009;-64
2021/07/28 07:59:20;;;;;;;11.90;6.53;;;;;;;41.88;29.18;100377.84;1700364;82;20999;-64
2021/07/28 08:01:47;;;;;;;12.00;7.35;;;;;;;41.43;29.49;100382.13;1697897;82;20967;-62
2021/07/28 08:04:13;;;;;;;17.40;6.67;;;;;;;41.35;30.06;100382.68;1698665;82;21164;-63
2021/07/28 08:06:40;;;;;;;11.73;5.78;;;;;;;41.35;30.03;100370.96;1695458;83;22384;-62
2021/07/28 08:09:07;;;;;;;10.20;6.30;;;;;;;41.23;28.96;100374.86;1703349;82;20915;-63
2021/07/28 08:11:35;;;;;;;12.00;5.75;;;;;;;41.11;28.66;100366.45;1698240;82;20983;-62
2021/07/28 08:14:04;;;;;;;10.48;5.55;;;;;;;41.46;28.53;100376.66;1697201;82;21455;-63
2021/07/28 08:16:30;;;;;;;16.20;6.72;;;;;;;41.63;28.00;100373.71;1699167;82;21038;-64
2021/07/28 08:18:58;;;;;;;11.10;5.62;;;;;;;41.70;27.74;100370.20;1698201;82;21193;-64
2021/07/28 08:21:24;;;;;;;12.58;5.87;;;;;;;41.81;28.08;100355.91;1694794;82;21106;-63
2021/07/28 08:23:52;;;;;;;8.15;5.37;;;;;;;41.84;27.49;100353.79;1696726;82;21089;-63
2021/07/28 08:26:18;;;;;;;9.95;6.17;;;;;;;41.85;27.78;100347.72;1695366;82;21081;-64
2021/07/28 08:28:46;;;;;;;13.68;6.12;;;;;;;41.98;28.01;100348.88;1698305;82;22195;-62
2021/07/28 08:31:13;;;;;;;10.70;5.22;;;;;;;42.15;27.88;100340.41;1701466;82;21201;-63
2021/07/28 08:33:40;;;;;;;10.30;5.58;;;;;;;42.32;26.88;100336.87;1700386;82;21069;-62
2021/07/28 08:36:06;;;;;;;11.93;5.03;;;;;;;42.40;26.10;100344.47;1697380;82;20955;-61
2021/07/28 08:38:33;;;;;;;12.25;5.75;;;;;;;42.41;25.46;100343.28;1697946;82;21061;-62
2021/07/28 08:41:00;;;;;;;7.80;5.53;;;;;;;42.24;25.90;100338.86;1700998;82;21152;-62
2021/07/28 08:43:31;;;;;;;12.63;5.72;;;;;;;42.27;25.18;100342.14;1698198;82;21152;-62
2021/07/28 08:46:01;;;;;;;10.95;5.25;;;;;;;42.10;26.00;100336.13;1741299;81;21042;-62
2021/07/28 08:48:29;;;;;;;10.40;4.87;;;;;;;42.03;26.24;100334.77;1749017;80;20993;-61
2021/07/28 08:50:58;;;;;;;11.45;4.95;;;;;;;42.23;26.39;100334.50;1715823;81;22392;-62
2021/07/28 08:53:25;;;;;;;17.80;5.92;;;;;;;42.39;26.46;100341.52;1748842;80;20975;-62
2021/07/28 08:55:53;;;;;;;11.08;5.45;;;;;;;42.49;25.71;100342.06;1750555;80;21139;-61
2021/07/28 08:58:23;;;;;;;7.83;5.15;;;;;;;42.37;25.46;100336.45;1752660;80;21004;-62
2021/07/28 09:00:51;;;;;;;8.58;4.62;;;;;;;42.02;25.54;100340.06;1746845;80;21040;-62
2021/07/28 09:03:17;;;;;;;14.75;4.85;;;;;;;42.09;25.48;100334.58;1749313;80;21081;-63
2021/07/28 09:05:46;;;;;;;6.80;4.28;;;;;;;42.20;26.20;100336.66;1753802;80;21041;-62
2021/07/28 09:08:32;;;;;;;8.97;4.50;;;;;;;42.26;26.53;100334.34;1712455;82;21108;-62
2021/07/28 09:11:03;;;;;;;19.00;4.80;;;;;;;42.26;26.53;100334.34;1751266;80;21753;-62
2021/07/28 09:13:41;;;;;;;16.50;4.87;;;;;;;42.64;26.13;100340.03;1751441;80;21565;-62
2021/07/28 09:16:11;;;;;;;15.85;4.60;;;;;;;42.54;25.80;100333.42;1711822;81;21072;-62
2021/07/28 09:18:40;;;;;;;12.75;5.33;;;;;;;42.40;25.94;100337.02;1747962;80;20986;-62
2021/07/28 09:21:27;;;;;;;25.20;6.37;;;;;;;42.34;26.00;100333.72;1755622;80;21117;-63
2021/07/28 09:24:13;;;;;;;9.93;4.47;;;;;;;42.27;26.18;100332.56;1716438;81;20992;-62
2021/07/28 09:26:44;;;;;;;14.00;5.45;;;;;;;42.42;25.81;100326.43;1712076;81;21127;-62
2021/07/28 09:29:16;;;;;;;27.17;10.28;;;;;;;42.40;25.10;100323.92;1716820;81;20997;-62
2021/07/28 09:31:48;;;;;;;12.63;5.87;;;;;;;42.09;25.55;100322.81;1748457;80;21046;-61
2021/07/28 09:34:21;;;;;;;10.03;4.30;;;;;;;41.97;25.41;100322.66;1714295;81;22348;-61
2021/07/28 09:36:55;;;;;;;7.80;4.33;;;;;;;42.03;24.92;100322.45;1750553;80;20989;-62
2021/07/28 09:39:35;;;;;;;7.70;4.45;;;;;;;42.16;25.21;100320.83;1748921;80;21306;-64
2021/07/28 09:42:17;;;;;;;8.63;4.35;;;;;;;42.37;25.16;100319.23;1713605;81;21171;-61
2021/07/28 09:44:50;;;;;;;10.25;4.58;;;;;;;42.60;24.77;100311.87;1751553;80;21536;-61
2021/07/28 09:47:19;;;;;;;6.90;3.92;;;;;;;42.64;24.11;100312.03;1746649;80;21185;-61
2021/07/28 09:49:48;;;;;;;14.73;4.40;;;;;;;42.68;23.93;100310.08;1711650;81;22098;-61
2021/07/28 09:52:29;;;;;;;6.67;3.63;;;;;;;42.74;24.12;100301.63;1753193;80;20918;-62
2021/07/28 09:54:57;;;;;;;6.83;3.95;;;;;;;42.82;24.17;100299.62;1751900;80;21113;-64
2021/07/28 09:57:25;;;;;;;6.45;3.50;;;;;;;42.97;23.68;100304.41;1715584;81;21451;-62
2021/07/28 10:00:04;;;;;;;8.15;3.90;;;;;;;43.04;22.93;100301.63;1750565;80;21140;-61
2021/07/28 10:02:33;;;;;;;9.08;4.58;;;;;;;43.06;22.78;100298.46;1752929;80;21013;-61
2021/07/28 10:05:02;;;;;;;10.25;4.60;;;;;;;42.19;23.51;100302.23;1712446;81;21086;-62
2021/07/28 10:07:30;;;;;;;6.50;3.40;;;;;;;42.82;22.86;100298.84;1750764;80;21008;-62
2021/07/28 10:10:09;;;;;;;7.65;3.33;;;;;;;42.69;23.35;100296.55;1714089;81;21045;-62
2021/07/28 10:12:37;;;;;;;8.28;3.77;;;;;;;42.78;23.32;100291.23;1750456;80;21844;-62
2021/07/28 10:15:08;;;;;;;9.10;4.00;;;;;;;42.72;23.03;100289.49;1748711;80;20938;-61
2021/07/28 10:17:37;;;;;;;6.12;3.80;;;;;;;42.61;22.53;100293.64;1714308;81;21039;-62
2021/07/28 10:20:06;;;;;;;11.18;4.37;;;;;;;42.49;23.18;100292.73;1751117;80;20994;-61
2021/07/28 10:22:33;;;;;;;6.65;4.30;;;;;;;42.21;22.35;100288.94;1713586;81;22158;-62
2021/07/28 10:24:59;;;;;;;8.88;4.00;;;;;;;41.99;23.96;100290.97;1749178;80;21137;-62
2021/07/28 10:27:26;;;;;;;12.50;4.25;;;;;;;41.64;24.68;100282.84;1688377;83;20954;-61
2021/07/28 10:29:52;;;;;;;10.30;3.55;;;;;;;41.29;25.12;100281.66;1713167;81;21862;-62
2021/07/28 10:32:31;;;;;;;9.53;3.72;;;;;;;41.04;25.45;100291.23;1713025;81;20950;-63
2021/07/28 10:35:22;;;;;;;10.60;4.65;;;;;;;40.75;25.57;100282.18;1703327;82;20980;-63
2021/07/28 10:37:50;;;;;;;10.70;4.50;;;;;;;40.47;25.71;100278.19;1698937;82;21133;-62
2021/07/28 10:40:31;;;;;;;7.17;3.35;;;;;;;40.70;25.08;100279.84;1741973;81;21116;-62
2021/07/28 10:43:01;;;;;;;9.98;4.58;;;;;;;40.85;23.61;100278.69;1751147;80;21076;-63
2021/07/28 10:45:32;;;;;;;8.77;4.70;;;;;;;40.96;24.26;100273.23;1750753;80;21088;-62
2021/07/28 10:47:58;;;;;;;9.55;4.10;;;;;;;41.07;24.22;100263.12;1667628;82;21124;-63
2021/07/28 10:50:36;;;;;;;6.90;3.85;;;;;;;41.29;23.98;100263.87;1752477;80;21949;-63
2021/07/28 10:53:02;;;;;;;9.80;4.30;;;;;;;41.47;24.23;100251.58;1749531;80;20887;-63
2021/07/28 10:55:37;;;;;;;7.78;3.65;;;;;;;41.46;24.05;100245.91;1714383;81;21506;-63
2021/07/28 10:58:14;;;;;;;10.38;3.90;;;;;;;41.31;24.02;100245.13;1751909;80;21010;-63
2021/07/28 11:00:48;;;;;;;10.03;4.25;;;;;;;41.20;22.99;100234.78;1750647;80;21061;-61
2021/07/28 11:03:18;;;;;;;9.63;4.20;;;;;;;41.30;22.28;100233.41;1751877;80;21810;-63
2021/07/28 11:05:48;;;;;;;8.75;3.65;;;;;;;41.22;22.23;100225.02;1706060;82;21045;-63
2021/07/28 11:08:20;;;;;;;9.00;3.37;;;;;;;41.67;22.35;100219.84;1704286;82;21007;-64
2021/07/28 11:10:58;;;;;;;7.40;3.80;;;;;;;41.82;22.22;100219.22;1694351;83;22189;-63
2021/07/28 11:13:29;;;;;;;9.98;3.98;;;;;;;41.89;22.48;100219.81;1700151;82;21085;-64
2021/07/28 11:16:04;;;;;;;6.92;3.75;;;;;;;41.78;22.98;100213.75;1704056;82;21108;-65
2021/07/28 11:18:35;;;;;;;6.62;3.35;;;;;;;41.60;22.79;100213.62;1700771;82;21604;-64
2021/07/28 11:21:19;;;;;;;6.22;3.85;;;;;;;41.53;22.92;100215.81;1702197;82;21290;-63
2021/07/28 11:23:55;;;;;;;13.80;5.87;;;;;;;41.64;22.31;100215.19;1703609;82;21044;-63
2021/07/28 11:26:35;;;;;;;5.42;3.72;;;;;;;41.58;21.16;100203.08;1699576;82;21553;-63